Time;durP1;ratioP1;P1;durP2;ratioP2;P2;SDS_P1;SDS_P2;PMS_P1;PMS_P2;Temp;Humidity;BMP_temperature;BMP_pressure;BME280_temperature;BME280_humidity;BME280_pressure;Samples;Min_cycle;Max_cycle;Signal;HPM_P1;HPM_P2
2023/02/25 00:01:13;;;;;;;8.63;4.05;;;;;;;;;;5028740;28;20025;-68
2023/02/25 00:03:39;;;;;;;9.27;4.27;;;;;;;;;;5030222;28;20013;-68
2023/02/25 00:06:05;;;;;;;7.43;3.53;;;;;;;;;;5028307;28;20041;-66
2023/02/25 00:08:31;;;;;;;8.10;3.65;;;;;;;;;;5030224;28;20040;-69
2023/02/25 00:10:59;;;;;;;7.93;3.33;;;;;;;;;;5029928;28;20083;-68
2023/02/25 00:13:25;;;;;;;9.95;3.63;;;;;;;;;;5031301;28;20032;-67
2023/02/25 00:15:50;;;;;;;9.05;4.00;;;;;;;;;;5031726;28;20018;-68
2023/02/25 00:18:16;;;;;;;9.52;3.90;;;;;;;;;;5033669;28;20166;-66
2023/02/25 00:20:41;;;;;;;8.68;3.67;;;;;;;;;;5032257;28;20025;-66
2023/02/25 00:23:07;;;;;;;8.77;3.85;;;;;;;;;;5031054;28;20026;-70
2023/02/25 00:25:32;;;;;;;8.15;3.63;;;;;;;;;;5029841;28;20045;-67
2023/02/25 00:27:57;;;;;;;8.73;3.78;;;;;;;;;;5029168;28;20025;-67
2023/02/25 00:30:22;;;;;;;7.65;3.65;;;;;;;;;;5024400;28;20045;-67
2023/02/25 00:32:48;;;;;;;7.97;3.85;;;;;;;;;;5026837;28;20439;-67
2023/02/25 00:35:13;;;;;;;8.68;3.90;;;;;;;;;;5032614;28;20370;-66
2023/02/25 00:37:38;;;;;;;7.87;3.63;;;;;;;;;;5028932;28;20021;-67
2023/02/25 00:40:09;;;;;;;9.05;4.10;;;;;;;;;;5029205;28;20028;-66
2023/02/25 00:42:34;;;;;;;7.60;3.15;;;;;;;;;;5037264;28;20513;-66
2023/02/25 00:44:59;;;;;;;7.70;3.58;;;;;;;;;;5027337;28;20120;-66
2023/02/25 00:47:24;;;;;;;8.27;3.58;;;;;;;;;;5031128;28;20400;-66
2023/02/25 00:49:51;;;;;;;7.45;3.63;;;;;;;;;;5041463;28;20079;-66
2023/02/25 00:54:51;;;;;;;10.65;4.07;;;;;;;;;;5354132;22;20081;-62
2023/02/25 00:57:16;;;;;;;11.15;4.50;;;;;;;;;;5015646;28;20469;-62
2023/02/25 00:59:41;;;;;;;10.03;4.10;;;;;;;;;;5008681;28;20022;-62
2023/02/25 01:02:06;;;;;;;10.40;4.63;;;;;;;;;;5013557;28;20161;-61
2023/02/25 01:04:31;;;;;;;9.57;4.05;;;;;;;;;;5004024;28;20037;-61
2023/02/25 01:06:57;;;;;;;10.87;5.20;;;;;;;;;;4997616;28;20393;-61
2023/02/25 01:09:22;;;;;;;9.55;4.53;;;;;;;;;;4993776;28;20413;-62
2023/02/25 01:11:47;;;;;;;13.17;4.67;;;;;;;;;;4995091;28;20089;-62
2023/02/25 01:14:14;;;;;;;10.80;4.68;;;;;;;;;;4997710;28;20021;-62
2023/02/25 01:16:40;;;;;;;11.55;4.60;;;;;;;;;;4999401;28;20022;-62
2023/02/25 01:19:07;;;;;;;11.60;5.22;;;;;;;;;;4993785;28;20465;-62
2023/02/25 01:21:33;;;;;;;;;;;;;;;;;;4994841;28;20034;-62
2023/02/25 01:24:09;;;;;;;8.30;3.63;;;;;;;;;;4992375;28;19981;-62
2023/02/25 01:26:37;;;;;;;9.88;4.43;;;;;;;;;;4994709;28;20037;-61
2023/02/25 01:29:06;;;;;;;10.18;4.03;;;;;;;;;;4993494;28;20104;-62
2023/02/25 01:31:31;;;;;;;13.18;4.50;;;;;;;;;;4994367;28;20018;-62
2023/02/25 01:33:58;;;;;;;9.93;3.70;;;;;;;;;;5001353;28;20475;-62
2023/02/25 01:36:23;;;;;;;11.60;3.90;;;;;;;;;;4994342;28;20042;-62
2023/02/25 01:38:48;;;;;;;10.10;4.18;;;;;;;;;;4998220;28;20018;-62
2023/02/25 01:41:13;;;;;;;10.33;4.20;;;;;;;;;;4993855;28;20029;-62
2023/02/25 01:43:39;;;;;;;9.23;3.90;;;;;;;;;;4992682;28;20098;-61
2023/02/25 01:46:05;;;;;;;11.05;4.05;;;;;;;;;;4994131;28;20092;-61
2023/02/25 01:48:32;;;;;;;10.55;4.07;;;;;;;;;;4999656;28;20485;-61
2023/02/25 01:51:01;;;;;;;8.82;3.67;;;;;;;;;;4995289;28;20022;-61
2023/02/25 01:53:29;;;;;;;12.55;4.55;;;;;;;;;;4992574;28;20026;-62
2023/02/25 01:55:56;;;;;;;10.98;3.55;;;;;;;;;;4990260;28;20442;-61
2023/02/25 01:58:21;;;;;;;;;;;;;;;;;;4993180;28;20068;-61
2023/02/25 02:00:46;;;;;;;9.77;3.05;;;;;;;;;;4992082;28;19937;-63
2023/02/25 02:03:14;;;;;;;8.93;3.05;;;;;;;;;;4992204;28;20026;-63
2023/02/25 02:06:01;;;;;;;8.98;3.13;;;;;;;;;;4993550;28;20030;-64
2023/02/25 02:08:27;;;;;;;9.85;2.97;;;;;;;;;;4993156;28;20121;-64
2023/02/25 02:10:52;;;;;;;10.45;3.20;;;;;;;;;;4991987;28;20022;-63
2023/02/25 02:13:18;;;;;;;9.18;2.92;;;;;;;;;;4991668;28;20125;-64
2023/02/25 02:16:05;;;;;;;10.65;3.10;;;;;;;;;;4993631;28;20730;-63
2023/02/25 02:18:32;;;;;;;10.63;2.80;;;;;;;;;;4990789;28;20026;-65
2023/02/25 02:21:19;;;;;;;8.50;2.45;;;;;;;;;;4994482;28;20014;-65
2023/02/25 02:24:02;;;;;;;10.80;2.40;;;;;;;;;;4994458;28;20030;-64
2023/02/25 02:26:42;;;;;;;8.57;2.40;;;;;;;;;;4992569;28;20022;-63
2023/02/25 02:29:11;;;;;;;9.45;2.22;;;;;;;;;;4986178;28;20014;-63
2023/02/25 02:31:39;;;;;;;7.80;2.05;;;;;;;;;;4996858;28;20027;-63
2023/02/25 02:34:17;;;;;;;8.98;2.28;;;;;;;;;;4992189;28;20033;-62
2023/02/25 02:36:53;;;;;;;7.15;2.33;;;;;;;;;;4993224;28;20018;-62
2023/02/25 02:39:24;;;;;;;10.23;2.20;;;;;;;;;;4992921;28;20026;-63
2023/02/25 02:41:58;;;;;;;8.98;2.08;;;;;;;;;;4988495;28;20030;-64
2023/02/25 02:44:26;;;;;;;9.43;2.05;;;;;;;;;;4992882;28;20018;-63
2023/02/25 02:46:53;;;;;;;9.32;2.08;;;;;;;;;;4991933;28;20548;-64
2023/02/25 02:49:37;;;;;;;7.97;2.00;;;;;;;;;;4993649;28;20022;-63
2023/02/25 02:52:05;;;;;;;7.35;2.05;;;;;;;;;;4991899;28;20041;-64
2023/02/25 02:54:32;;;;;;;6.32;1.80;;;;;;;;;;4992684;28;20033;-62
2023/02/25 02:56:58;;;;;;;7.28;1.90;;;;;;;;;;4992010;28;20037;-64
2023/02/25 02:59:24;;;;;;;6.55;1.63;;;;;;;;;;4991243;28;20101;-64
2023/02/25 03:01:53;;;;;;;11.02;1.75;;;;;;;;;;4990323;28;20530;-64
2023/02/25 03:04:22;;;;;;;7.30;1.67;;;;;;;;;;4991032;28;20015;-63
2023/02/25 03:06:49;;;;;;;9.02;1.55;;;;;;;;;;4990844;28;20038;-63
2023/02/25 03:09:17;;;;;;;8.82;1.73;;;;;;;;;;4993010;28;20025;-63
2023/02/25 03:11:42;;;;;;;11.02;2.00;;;;;;;;;;4990709;28;20034;-62
2023/02/25 03:14:07;;;;;;;7.00;1.50;;;;;;;;;;4990703;28;20029;-63
2023/02/25 03:16:37;;;;;;;9.55;1.75;;;;;;;;;;4997983;28;21108;-63
2023/02/25 03:19:13;;;;;;;7.93;1.80;;;;;;;;;;4988562;28;20109;-62
2023/02/25 03:21:45;;;;;;;10.38;2.13;;;;;;;;;;4989787;28;20038;-62
2023/02/25 03:24:14;;;;;;;8.10;1.50;;;;;;;;;;4990826;28;20025;-63
2023/02/25 03:26:41;;;;;;;7.60;1.55;;;;;;;;;;4993482;28;20109;-63
2023/02/25 03:29:06;;;;;;;;;;;;;;;;;;4995914;28;20032;-63
2023/02/25 03:31:35;;;;;;;5.82;1.52;;;;;;;;;;4993478;28;19910;-63
2023/02/25 03:34:07;;;;;;;7.22;1.33;;;;;;;;;;4990520;28;20034;-62
2023/02/25 03:36:43;;;;;;;6.10;1.25;;;;;;;;;;4989751;28;20485;-63
2023/02/25 03:39:11;;;;;;;10.25;1.52;;;;;;;;;;4982252;28;20022;-62
2023/02/25 03:41:38;;;;;;;7.78;1.20;;;;;;;;;;4990486;28;20381;-63
2023/02/25 03:44:06;;;;;;;5.57;1.25;;;;;;;;;;4988771;28;20666;-63
2023/02/25 03:46:31;;;;;;;6.03;1.23;;;;;;;;;;4988588;28;20588;-63
2023/02/25 03:48:57;;;;;;;5.85;1.30;;;;;;;;;;4990103;28;20061;-63
2023/02/25 03:51:26;;;;;;;5.75;1.27;;;;;;;;;;4991819;28;20072;-63
2023/02/25 03:53:51;;;;;;;5.93;1.48;;;;;;;;;;4995275;28;20022;-63
2023/02/25 03:56:16;;;;;;;5.15;1.23;;;;;;;;;;4951241;28;1167213;-63
2023/02/25 03:58:41;;;;;;;8.77;1.67;;;;;;;;;;4990473;28;20037;-61
2023/02/25 04:01:09;;;;;;;8.13;1.20;;;;;;;;;;4990164;28;20564;-63
2023/02/25 04:03:34;;;;;;;8.45;1.27;;;;;;;;;;4996799;28;20034;-61
2023/02/25 04:06:00;;;;;;;5.30;1.17;;;;;;;;;;4991539;28;20033;-62
2023/02/25 04:08:25;;;;;;;6.03;1.17;;;;;;;;;;4989884;28;20057;-61
2023/02/25 04:10:51;;;;;;;5.73;1.20;;;;;;;;;;4984165;28;20046;-62
2023/02/25 04:13:19;;;;;;;7.93;1.40;;;;;;;;;;4990942;28;20358;-62
2023/02/25 04:15:44;;;;;;;7.22;1.63;;;;;;;;;;4990823;28;20037;-63
2023/02/25 04:18:09;;;;;;;10.63;1.60;;;;;;;;;;4988475;28;20030;-63
2023/02/25 04:20:34;;;;;;;4.97;1.10;;;;;;;;;;4998102;28;20042;-62
2023/02/25 04:23:00;;;;;;;7.03;1.35;;;;;;;;;;4999425;28;20061;-62
2023/02/25 04:25:25;;;;;;;7.32;1.35;;;;;;;;;;4990315;28;20500;-63
2023/02/25 04:27:50;;;;;;;6.97;1.75;;;;;;;;;;4989378;28;20346;-62
2023/02/25 04:30:16;;;;;;;11.30;1.70;;;;;;;;;;4993167;28;20054;-63
2023/02/25 04:32:41;;;;;;;8.75;1.33;;;;;;;;;;4990505;28;20026;-63
2023/02/25 04:35:10;;;;;;;9.27;1.30;;;;;;;;;;4988483;28;20038;-63
2023/02/25 04:37:35;;;;;;;5.57;1.15;;;;;;;;;;4998532;28;20050;-63
2023/02/25 04:40:01;;;;;;;3.97;0.93;;;;;;;;;;4990024;28;20046;-63
2023/02/25 04:42:26;;;;;;;3.83;0.90;;;;;;;;;;4994651;28;20022;-63
2023/02/25 04:44:51;;;;;;;2.42;0.75;;;;;;;;;;4990297;28;20101;-64
2023/02/25 04:47:17;;;;;;;4.35;0.88;;;;;;;;;;4991925;28;20041;-64
2023/02/25 04:49:45;;;;;;;3.80;0.90;;;;;;;;;;5000393;28;20110;-64
2023/02/25 04:52:11;;;;;;;3.08;0.90;;;;;;;;;;4998155;28;20124;-64
2023/02/25 04:54:37;;;;;;;2.22;0.88;;;;;;;;;;4985783;28;20498;-64
2023/02/25 04:57:02;;;;;;;4.23;1.07;;;;;;;;;;4988497;28;20033;-64
2023/02/25 04:59:27;;;;;;;2.73;0.90;;;;;;;;;;4988528;28;20507;-65
2023/02/25 05:01:52;;;;;;;2.65;0.90;;;;;;;;;;4991055;28;20080;-64
2023/02/25 05:04:17;;;;;;;2.90;1.00;;;;;;;;;;4989518;28;20105;-64
2023/02/25 05:06:42;;;;;;;2.60;0.70;;;;;;;;;;4996426;28;20030;-63
2023/02/25 05:09:07;;;;;;;2.58;0.70;;;;;;;;;;4990167;28;20141;-63
2023/02/25 05:11:33;;;;;;;5.25;1.15;;;;;;;;;;4995498;28;20022;-63
2023/02/25 05:13:58;;;;;;;3.23;1.00;;;;;;;;;;4999029;28;20043;-63
2023/02/25 05:16:24;;;;;;;5.33;1.20;;;;;;;;;;4993641;28;20024;-63
2023/02/25 05:18:49;;;;;;;3.45;1.15;;;;;;;;;;4989383;28;20027;-64
2023/02/25 05:21:15;;;;;;;3.45;1.10;;;;;;;;;;5002168;28;20101;-62
2023/02/25 05:23:41;;;;;;;3.15;1.02;;;;;;;;;;4995054;28;20019;-63
2023/02/25 05:26:07;;;;;;;3.65;1.20;;;;;;;;;;4990337;28;20501;-62
2023/02/25 05:28:33;;;;;;;5.00;1.13;;;;;;;;;;4995085;28;20520;-62
2023/02/25 05:30:58;;;;;;;3.57;1.20;;;;;;;;;;4994659;28;20378;-63
2023/02/25 05:33:23;;;;;;;5.67;1.37;;;;;;;;;;5006130;28;20464;-63
2023/02/25 05:35:48;;;;;;;4.27;1.30;;;;;;;;;;4998171;28;20032;-63
2023/02/25 05:38:14;;;;;;;3.80;1.15;;;;;;;;;;5002308;28;20458;-63
2023/02/25 05:40:39;;;;;;;3.70;1.40;;;;;;;;;;4993414;28;20052;-63
2023/02/25 05:43:04;;;;;;;3.25;1.10;;;;;;;;;;4996171;28;20618;-63
2023/02/25 05:45:29;;;;;;;4.20;1.33;;;;;;;;;;4998294;28;20034;-67
2023/02/25 05:47:54;;;;;;;3.22;1.10;;;;;;;;;;4994199;28;20022;-63
2023/02/25 05:50:20;;;;;;;4.63;1.17;;;;;;;;;;5003372;28;20026;-63
2023/02/25 05:52:45;;;;;;;4.20;1.20;;;;;;;;;;4990672;28;20088;-63
2023/02/25 05:55:10;;;;;;;3.90;1.23;;;;;;;;;;4993174;28;20397;-62
2023/02/25 05:57:36;;;;;;;3.33;1.20;;;;;;;;;;5000562;28;20393;-62
2023/02/25 06:00:03;;;;;;;3.83;1.30;;;;;;;;;;5001132;28;20022;-63
2023/02/25 06:02:28;;;;;;;5.07;1.35;;;;;;;;;;4996748;28;20013;-62
2023/02/25 06:04:53;;;;;;;3.70;1.20;;;;;;;;;;5004162;28;20030;-63
2023/02/25 06:07:18;;;;;;;3.63;1.10;;;;;;;;;;5000400;28;20554;-63
2023/02/25 06:09:43;;;;;;;3.58;1.10;;;;;;;;;;4992147;28;20026;-64
2023/02/25 06:12:08;;;;;;;3.53;1.10;;;;;;;;;;5003843;28;20017;-63
2023/02/25 06:14:34;;;;;;;3.77;1.30;;;;;;;;;;4995372;28;20050;-63
2023/02/25 06:16:59;;;;;;;3.90;1.27;;;;;;;;;;4992960;28;20541;-63
2023/02/25 06:19:25;;;;;;;4.47;1.17;;;;;;;;;;5001439;28;20109;-63
2023/02/25 06:21:50;;;;;;;3.30;1.05;;;;;;;;;;4993469;28;20113;-63
2023/02/25 06:24:15;;;;;;;4.68;1.50;;;;;;;;;;4996896;28;20028;-63
2023/02/25 06:26:41;;;;;;;4.32;1.50;;;;;;;;;;4993152;28;20038;-63
2023/02/25 06:29:07;;;;;;;4.82;1.30;;;;;;;;;;4991035;28;20400;-64
2023/02/25 06:31:33;;;;;;;5.35;1.50;;;;;;;;;;4993048;28;20030;-63
2023/02/25 06:33:58;;;;;;;3.72;1.25;;;;;;;;;;4983653;28;20678;-63
2023/02/25 06:36:23;;;;;;;4.70;1.85;;;;;;;;;;4986753;28;20035;-64
2023/02/25 06:38:48;;;;;;;5.17;1.60;;;;;;;;;;4983785;28;20027;-63
2023/02/25 06:41:16;;;;;;;4.10;1.70;;;;;;;;;;4992505;28;20081;-62
2023/02/25 06:43:41;;;;;;;6.55;2.00;;;;;;;;;;4984537;28;20010;-63
2023/02/25 06:46:08;;;;;;;5.63;2.33;;;;;;;;;;4987222;28;20378;-62
2023/02/25 06:48:34;;;;;;;;;;;;;;;;;;4993021;28;20022;-63
2023/02/25 06:50:59;;;;;;;5.43;2.00;;;;;;;;;;4990935;28;19916;-62
2023/02/25 06:53:24;;;;;;;6.47;2.13;;;;;;;;;;4986208;28;20022;-62
2023/02/25 06:55:49;;;;;;;7.40;2.20;;;;;;;;;;4990995;28;20030;-63
2023/02/25 06:58:16;;;;;;;5.85;2.22;;;;;;;;;;4987733;28;20511;-62
2023/02/25 07:00:41;;;;;;;;;;;;;;;;;;4989658;28;20041;-63
2023/02/25 07:03:08;;;;;;;8.27;2.07;;;;;;;;;;4993806;28;20364;-62
2023/02/25 07:05:34;;;;;;;5.78;2.20;;;;;;;;;;4997987;28;20113;-62
2023/02/25 07:07:59;;;;;;;6.07;2.10;;;;;;;;;;4990557;28;20533;-61
2023/02/25 07:10:24;;;;;;;5.03;1.98;;;;;;;;;;4994394;28;20025;-62
2023/02/25 07:12:50;;;;;;;5.10;1.80;;;;;;;;;;4992890;28;20026;-64
2023/02/25 07:15:15;;;;;;;6.68;2.05;;;;;;;;;;4993588;28;20030;-62
2023/02/25 07:17:40;;;;;;;4.70;1.90;;;;;;;;;;4996514;28;20025;-63
2023/02/25 07:20:06;;;;;;;5.68;1.83;;;;;;;;;;5001547;28;20385;-63
2023/02/25 07:22:31;;;;;;;4.10;1.83;;;;;;;;;;4996622;28;20389;-63
2023/02/25 07:24:56;;;;;;;4.60;1.85;;;;;;;;;;4991018;28;20022;-62
2023/02/25 07:27:21;;;;;;;5.35;1.70;;;;;;;;;;4979046;28;20460;-63
2023/02/25 07:29:46;;;;;;;5.80;1.95;;;;;;;;;;4990202;28;20073;-62
2023/02/25 07:32:12;;;;;;;6.53;1.65;;;;;;;;;;4990500;28;20028;-62
2023/02/25 07:34:38;;;;;;;6.03;2.20;;;;;;;;;;4982723;28;20078;-63
2023/02/25 07:37:03;;;;;;;6.63;2.28;;;;;;;;;;4985771;28;20033;-62
2023/02/25 07:39:28;;;;;;;5.38;1.70;;;;;;;;;;4979614;28;20023;-63
2023/02/25 07:41:53;;;;;;;4.80;1.48;;;;;;;;;;4987821;28;20026;-62
2023/02/25 07:44:18;;;;;;;6.20;1.70;;;;;;;;;;4979279;28;20034;-64
2023/02/25 07:46:43;;;;;;;5.53;1.80;;;;;;;;;;4987695;28;20122;-63
2023/02/25 07:49:08;;;;;;;4.15;1.73;;;;;;;;;;4984508;28;20560;-63
2023/02/25 07:51:34;;;;;;;3.72;1.45;;;;;;;;;;4984906;28;20088;-64
2023/02/25 07:53:59;;;;;;;8.63;1.60;;;;;;;;;;4986619;28;20084;-63
2023/02/25 07:56:26;;;;;;;6.55;2.05;;;;;;;;;;4984115;28;20038;-63
2023/02/25 07:58:51;;;;;;;5.43;1.70;;;;;;;;;;4990157;28;20077;-63
2023/02/25 08:01:16;;;;;;;4.83;1.63;;;;;;;;;;4986492;28;20026;-63
2023/02/25 08:03:41;;;;;;;7.28;1.88;;;;;;;;;;4994281;28;20018;-63
2023/02/25 08:06:07;;;;;;;5.05;1.58;;;;;;;;;;4987125;28;20080;-64
2023/02/25 08:08:33;;;;;;;6.28;1.85;;;;;;;;;;4985149;28;20446;-63
2023/02/25 08:10:58;;;;;;;3.95;1.60;;;;;;;;;;4991617;28;20026;-63
2023/02/25 08:13:23;;;;;;;4.90;1.87;;;;;;;;;;4992578;28;20029;-64
2023/02/25 08:15:48;;;;;;;6.40;1.93;;;;;;;;;;4990671;28;20417;-63
2023/02/25 08:18:13;;;;;;;6.10;1.90;;;;;;;;;;4993351;28;20018;-63
2023/02/25 08:20:43;;;;;;;4.35;1.67;;;;;;;;;;4993606;28;20022;-64
2023/02/25 08:23:08;;;;;;;4.95;1.42;;;;;;;;;;4984419;28;20022;-64
2023/02/25 08:25:34;;;;;;;6.35;1.80;;;;;;;;;;4984024;28;20121;-63
2023/02/25 08:27:59;;;;;;;5.15;1.65;;;;;;;;;;4987107;28;20034;-63
2023/02/25 08:30:25;;;;;;;5.90;2.25;;;;;;;;;;4992359;28;20045;-63
2023/02/25 08:32:50;;;;;;;6.07;2.30;;;;;;;;;;4994933;28;20010;-64
2023/02/25 08:35:15;;;;;;;5.80;2.30;;;;;;;;;;4993272;28;20030;-64
2023/02/25 08:37:43;;;;;;;4.83;2.10;;;;;;;;;;4989441;28;20018;-63
2023/02/25 08:40:09;;;;;;;5.05;2.10;;;;;;;;;;4988549;28;20026;-63
2023/02/25 08:42:35;;;;;;;6.30;2.00;;;;;;;;;;4990543;28;20034;-63
2023/02/25 08:45:00;;;;;;;4.85;1.88;;;;;;;;;;4988868;28;20062;-64
2023/02/25 08:47:25;;;;;;;5.30;2.13;;;;;;;;;;4991339;28;20348;-63
2023/02/25 08:49:50;;;;;;;6.83;2.20;;;;;;;;;;4990384;28;20030;-64
2023/02/25 08:52:15;;;;;;;8.13;2.53;;;;;;;;;;4990962;28;20026;-64
2023/02/25 08:54:41;;;;;;;7.17;2.10;;;;;;;;;;4990067;28;20109;-63
2023/02/25 08:57:06;;;;;;;5.88;2.47;;;;;;;;;;4990377;28;20081;-62
2023/02/25 08:59:34;;;;;;;5.70;2.00;;;;;;;;;;4991307;28;20026;-62
2023/02/25 09:02:06;;;;;;;5.07;1.90;;;;;;;;;;4989614;28;20073;-63
2023/02/25 09:04:32;;;;;;;5.35;1.42;;;;;;;;;;4990387;28;20021;-63
2023/02/25 09:06:58;;;;;;;4.93;1.70;;;;;;;;;;4989261;28;20026;-63
2023/02/25 09:09:23;;;;;;;4.88;1.65;;;;;;;;;;4989740;28;20076;-62
2023/02/25 09:11:48;;;;;;;5.03;1.40;;;;;;;;;;4989022;28;20026;-63
2023/02/25 09:14:14;;;;;;;5.73;1.17;;;;;;;;;;4990217;28;20456;-62
2023/02/25 09:16:39;;;;;;;3.60;1.20;;;;;;;;;;4989391;28;20081;-63
2023/02/25 09:19:04;;;;;;;3.43;1.07;;;;;;;;;;4990558;28;20042;-63
2023/02/25 09:21:29;;;;;;;2.97;1.07;;;;;;;;;;4988794;28;20363;-63
2023/02/25 09:23:54;;;;;;;3.00;1.00;;;;;;;;;;4991909;28;20018;-61
2023/02/25 09:26:20;;;;;;;2.92;1.00;;;;;;;;;;4991424;28;20076;-62
2023/02/25 09:28:46;;;;;;;3.78;1.08;;;;;;;;;;4990899;28;20113;-62
2023/02/25 09:31:11;;;;;;;3.10;1.00;;;;;;;;;;4993693;28;20026;-61
2023/02/25 09:33:36;;;;;;;4.60;1.10;;;;;;;;;;4991040;28;20033;-62
2023/02/25 09:36:03;;;;;;;2.57;0.80;;;;;;;;;;4994904;28;20426;-62
2023/02/25 09:38:28;;;;;;;2.90;0.85;;;;;;;;;;4993584;28;20921;-62
2023/02/25 09:40:53;;;;;;;2.92;0.90;;;;;;;;;;4992631;28;20048;-63
2023/02/25 09:43:36;;;;;;;3.22;0.90;;;;;;;;;;4993028;28;20026;-61
2023/02/25 09:46:05;;;;;;;3.50;0.80;;;;;;;;;;4993147;28;20550;-61
2023/02/25 09:48:31;;;;;;;3.30;0.88;;;;;;;;;;4990402;28;20022;-62
2023/02/25 09:51:02;;;;;;;4.53;1.10;;;;;;;;;;4993947;28;20022;-62
2023/02/25 09:53:34;;;;;;;4.22;0.90;;;;;;;;;;4984808;28;20101;-62
2023/02/25 09:56:01;;;;;;;3.33;0.90;;;;;;;;;;4991011;28;20030;-62
2023/02/25 09:58:26;;;;;;;2.55;0.90;;;;;;;;;;4993726;28;20026;-62
2023/02/25 10:00:54;;;;;;;3.00;0.90;;;;;;;;;;4992060;28;20030;-62
2023/02/25 10:03:38;;;;;;;3.40;0.90;;;;;;;;;;4993349;28;20377;-62
2023/02/25 10:06:21;;;;;;;5.38;1.10;;;;;;;;;;4992430;28;20030;-62
2023/02/25 10:09:05;;;;;;;3.45;0.95;;;;;;;;;;4990986;28;20046;-61
2023/02/25 10:11:39;;;;;;;2.78;0.85;;;;;;;;;;4985902;28;20030;-63
2023/02/25 10:14:10;;;;;;;2.80;0.88;;;;;;;;;;4986283;28;20093;-61
2023/02/25 10:16:46;;;;;;;4.32;1.00;;;;;;;;;;4990871;28;20034;-63
2023/02/25 10:19:19;;;;;;;2.72;0.93;;;;;;;;;;4992045;28;20010;-62
2023/02/25 10:22:00;;;;;;;2.72;0.70;;;;;;;;;;4991898;28;20073;-62
2023/02/25 10:24:31;;;;;;;3.67;1.00;;;;;;;;;;4993097;28;20023;-62
2023/02/25 10:27:15;;;;;;;2.33;0.85;;;;;;;;;;4991943;28;20038;-63
2023/02/25 10:29:45;;;;;;;2.35;0.93;;;;;;;;;;4993430;28;20105;-63
2023/02/25 10:32:16;;;;;;;3.72;1.00;;;;;;;;;;4989331;28;20022;-62
2023/02/25 10:34:41;;;;;;;2.53;0.85;;;;;;;;;;4992847;28;20512;-62
2023/02/25 10:37:10;;;;;;;3.92;0.80;;;;;;;;;;4991357;28;20018;-63
2023/02/25 10:39:35;;;;;;;4.18;1.10;;;;;;;;;;4993578;28;20019;-62
2023/02/25 10:42:00;;;;;;;2.42;0.80;;;;;;;;;;4992090;28;20037;-62
2023/02/25 10:44:26;;;;;;;2.87;0.97;;;;;;;;;;4992807;28;20362;-62
2023/02/25 10:46:53;;;;;;;3.17;1.13;;;;;;;;;;4991470;28;20034;-62
2023/02/25 10:49:19;;;;;;;3.35;1.10;;;;;;;;;;4990158;28;20027;-63
2023/02/25 10:52:04;;;;;;;2.22;0.80;;;;;;;;;;4992506;28;20034;-63
2023/02/25 10:54:31;;;;;;;3.30;0.80;;;;;;;;;;4991102;28;20034;-64
2023/02/25 10:56:57;;;;;;;4.32;1.30;;;;;;;;;;4991362;28;20026;-63
2023/02/25 10:59:25;;;;;;;2.67;0.88;;;;;;;;;;4990608;28;20025;-63
2023/02/25 11:01:51;;;;;;;2.70;0.90;;;;;;;;;;4991579;28;20358;-62
2023/02/25 11:04:17;;;;;;;2.95;0.82;;;;;;;;;;4991302;28;20022;-62
2023/02/25 11:06:43;;;;;;;2.35;0.90;;;;;;;;;;4991782;28;20173;-62
2023/02/25 11:09:17;;;;;;;3.70;1.10;;;;;;;;;;4990911;28;20105;-64
2023/02/25 11:11:51;;;;;;;3.53;0.95;;;;;;;;;;4991967;28;20120;-63
2023/02/25 11:14:17;;;;;;;4.18;1.00;;;;;;;;;;4990416;28;20019;-63
2023/02/25 11:16:44;;;;;;;3.30;1.10;;;;;;;;;;4994601;28;20022;-61
2023/02/25 11:19:27;;;;;;;3.45;0.93;;;;;;;;;;4990687;28;20025;-62
2023/02/25 11:21:53;;;;;;;3.70;1.10;;;;;;;;;;4992046;28;20367;-62
2023/02/25 11:24:26;;;;;;;2.70;0.90;;;;;;;;;;4990898;28;20022;-62
2023/02/25 11:26:52;;;;;;;3.15;0.93;;;;;;;;;;4989553;28;20034;-61
2023/02/25 11:29:23;;;;;;;4.40;1.37;;;;;;;;;;4990592;28;20500;-63
2023/02/25 11:31:50;;;;;;;3.92;1.10;;;;;;;;;;4991259;28;20051;-62
2023/02/25 11:34:15;;;;;;;;;;;;;;;;;;4990857;28;20034;-62
2023/02/25 11:36:41;;;;;;;5.65;1.40;;;;;;;;;;4987392;28;19914;-62
2023/02/25 11:39:18;;;;;;;4.00;1.30;;;;;;;;;;4990211;28;20081;-61
2023/02/25 11:41:44;;;;;;;3.58;1.30;;;;;;;;;;4987977;28;20108;-61
2023/02/25 11:44:15;;;;;;;4.57;1.60;;;;;;;;;;4990205;28;20072;-61
2023/02/25 11:46:42;;;;;;;3.63;1.58;;;;;;;;;;4991074;28;20053;-61
2023/02/25 11:49:07;;;;;;;;;;;;;;;;;;4992190;28;20485;-62
2023/02/25 11:51:47;;;;;;;7.85;2.08;;;;;;;;;;4990212;28;20484;-62
2023/02/25 11:54:18;;;;;;;4.90;1.73;;;;;;;;;;4983072;28;20046;-64
2023/02/25 11:56:50;;;;;;;4.38;1.70;;;;;;;;;;4990526;28;20130;-61
2023/02/25 11:59:50;;;;;;;5.25;1.80;;;;;;;;;;4992374;28;20022;-62
2023/02/25 12:02:22;;;;;;;3.70;1.27;;;;;;;;;;4961451;28;20395;-61
2023/02/25 12:05:06;;;;;;;4.60;1.60;;;;;;;;;;4972624;28;20031;-61
2023/02/25 12:07:31;;;;;;;3.53;1.38;;;;;;;;;;4987075;28;20057;-62
2023/02/25 12:10:16;;;;;;;4.53;1.57;;;;;;;;;;4988601;28;20482;-62
2023/02/25 12:13:01;;;;;;;4.32;1.60;;;;;;;;;;4985929;28;20489;-63
2023/02/25 12:15:35;;;;;;;3.40;1.33;;;;;;;;;;4982830;28;20390;-63
2023/02/25 12:18:19;;;;;;;3.67;1.30;;;;;;;;;;4987402;28;20018;-63
2023/02/25 12:20:45;;;;;;;3.55;1.25;;;;;;;;;;4984815;28;20420;-62
2023/02/25 12:23:28;;;;;;;3.77;1.47;;;;;;;;;;4988107;28;20022;-63
2023/02/25 12:25:56;;;;;;;3.28;1.20;;;;;;;;;;4988375;28;20405;-62
2023/02/25 12:28:30;;;;;;;4.25;1.40;;;;;;;;;;4984294;28;20105;-62
2023/02/25 12:31:01;;;;;;;3.65;1.30;;;;;;;;;;4987328;28;20049;-61
2023/02/25 12:33:35;;;;;;;3.00;1.20;;;;;;;;;;4980773;28;20019;-61
2023/02/25 12:36:19;;;;;;;3.92;1.38;;;;;;;;;;4987370;28;20356;-62
2023/02/25 12:38:54;;;;;;;3.33;1.27;;;;;;;;;;4990992;28;20030;-63
2023/02/25 12:41:25;;;;;;;3.40;1.10;;;;;;;;;;4987617;28;20149;-62
2023/02/25 12:43:53;;;;;;;3.35;1.15;;;;;;;;;;4986516;28;20018;-62
2023/02/25 12:46:33;;;;;;;2.53;1.00;;;;;;;;;;5000032;28;20053;-62
2023/02/25 12:49:01;;;;;;;3.90;1.20;;;;;;;;;;4984820;28;20014;-63
2023/02/25 12:51:42;;;;;;;2.80;0.98;;;;;;;;;;4985269;28;20030;-62
2023/02/25 12:54:07;;;;;;;2.97;1.00;;;;;;;;;;4981894;28;21356;-63
2023/02/25 12:56:35;;;;;;;3.97;1.20;;;;;;;;;;4990678;28;20480;-63
2023/02/25 12:59:09;;;;;;;3.25;1.13;;;;;;;;;;4992142;28;20512;-63
2023/02/25 13:01:47;;;;;;;3.08;1.20;;;;;;;;;;4990345;28;20046;-63
2023/02/25 13:04:19;;;;;;;6.05;1.00;;;;;;;;;;4990064;28;20034;-62
2023/02/25 13:07:03;;;;;;;4.10;1.10;;;;;;;;;;5002931;28;20113;-61
2023/02/25 13:09:47;;;;;;;3.40;1.10;;;;;;;;;;4994189;28;20473;-63
2023/02/25 13:12:30;;;;;;;3.97;1.38;;;;;;;;;;4989184;28;20468;-62
2023/02/25 13:15:03;;;;;;;3.15;1.10;;;;;;;;;;4992072;28;20027;-62
2023/02/25 13:17:35;;;;;;;2.60;0.90;;;;;;;;;;4995320;28;20065;-62
2023/02/25 13:20:19;;;;;;;4.78;1.08;;;;;;;;;;5002129;28;20107;-63
2023/02/25 13:22:53;;;;;;;3.00;1.00;;;;;;;;;;4991308;28;20019;-63
2023/02/25 13:25:37;;;;;;;3.45;1.10;;;;;;;;;;5002265;28;20069;-63
2023/02/25 13:28:03;;;;;;;3.70;1.35;;;;;;;;;;4992077;28;20073;-63
2023/02/25 13:30:35;;;;;;;3.47;1.00;;;;;;;;;;4992368;28;20032;-62
2023/02/25 13:33:10;;;;;;;2.88;0.95;;;;;;;;;;4997436;28;20477;-63
2023/02/25 13:35:41;;;;;;;3.33;1.25;;;;;;;;;;5003902;28;20044;-62
2023/02/25 13:38:18;;;;;;;3.17;1.00;;;;;;;;;;4990644;28;20097;-62
2023/02/25 13:40:53;;;;;;;3.00;0.90;;;;;;;;;;5002829;28;20092;-62
2023/02/25 13:43:21;;;;;;;3.00;1.00;;;;;;;;;;4995097;28;20045;-63
2023/02/25 13:45:55;;;;;;;3.50;1.15;;;;;;;;;;4999728;28;20089;-63
2023/02/25 13:48:35;;;;;;;3.10;1.00;;;;;;;;;;4995098;28;20030;-63
2023/02/25 13:51:07;;;;;;;3.50;1.05;;;;;;;;;;4998765;28;20394;-63
2023/02/25 13:53:51;;;;;;;3.10;0.80;;;;;;;;;;4989862;28;20073;-63
2023/02/25 13:56:25;;;;;;;2.42;0.85;;;;;;;;;;4983039;28;20018;-63
2023/02/25 13:58:54;;;;;;;3.38;1.02;;;;;;;;;;4989829;28;20034;-63
2023/02/25 14:01:27;;;;;;;4.95;1.05;;;;;;;;;;4990801;28;20018;-63
2023/02/25 14:04:09;;;;;;;3.38;1.23;;;;;;;;;;4985791;28;20060;-64
2023/02/25 14:06:34;;;;;;;3.72;1.20;;;;;;;;;;4989479;28;20034;-63
2023/02/25 14:09:20;;;;;;;2.87;1.10;;;;;;;;;;4990400;28;20031;-63
2023/02/25 14:11:46;;;;;;;3.25;1.13;;;;;;;;;;4991996;28;20105;-63
2023/02/25 14:14:26;;;;;;;3.17;1.00;;;;;;;;;;4991727;28;20068;-63
2023/02/25 14:17:03;;;;;;;3.38;1.17;;;;;;;;;;4992529;28;20022;-63
2023/02/25 14:19:39;;;;;;;2.75;0.90;;;;;;;;;;4988637;28;20050;-63
2023/02/25 14:22:19;;;;;;;3.42;1.00;;;;;;;;;;4993450;28;20041;-64
2023/02/25 14:25:03;;;;;;;2.80;0.77;;;;;;;;;;4992691;28;20109;-63
2023/02/25 14:27:34;;;;;;;2.83;0.95;;;;;;;;;;4998170;28;20038;-65
2023/02/25 14:30:10;;;;;;;2.95;0.82;;;;;;;;;;4990221;28;20022;-65
2023/02/25 14:32:41;;;;;;;2.85;0.90;;;;;;;;;;4989092;28;20034;-66
2023/02/25 14:35:15;;;;;;;2.92;0.73;;;;;;;;;;4989338;28;20014;-63
2023/02/25 14:37:43;;;;;;;2.55;0.70;;;;;;;;;;4990412;28;20027;-63
2023/02/25 14:40:17;;;;;;;1.65;0.47;;;;;;;;;;4997250;28;20026;-64
2023/02/25 14:43:00;;;;;;;2.22;0.60;;;;;;;;;;4989695;28;20022;-63
2023/02/25 14:45:33;;;;;;;1.88;0.52;;;;;;;;;;4988240;28;20208;-64
2023/02/25 14:48:15;;;;;;;1.88;0.50;;;;;;;;;;4989272;28;20145;-63
2023/02/25 14:50:59;;;;;;;2.30;0.50;;;;;;;;;;4988249;28;20033;-63
2023/02/25 14:53:27;;;;;;;1.65;0.60;;;;;;;;;;4981209;28;20019;-62
2023/02/25 14:55:59;;;;;;;2.33;0.77;;;;;;;;;;4988008;28;20477;-61